Time;durP1;ratioP1;P1;durP2;ratioP2;P2;SDS_P1;SDS_P2;PMS_P1;PMS_P2;Temp;Humidity;BMP_temperature;BMP_pressure;BME280_temperature;BME280_humidity;BME280_pressure;Samples;Min_cycle;Max_cycle;Signal;HPM_P1;HPM_P2
2022/04/08 00:01:15;;;;;;;2.08;0.75;;;;;;;7.77;73.83;97088.09;5053773;28;20029;-71
2022/04/08 00:03:41;;;;;;;6.60;1.38;;;;;;;7.76;73.58;97087.25;5051717;28;20013;-71
2022/04/08 00:06:08;;;;;;;4.40;0.77;;;;;;;7.82;73.53;97076.56;5052018;28;20415;-71
2022/04/08 00:08:34;;;;;;;2.92;0.70;;;;;;;7.73;73.52;97082.13;5052623;28;20035;-71
2022/04/08 00:10:59;;;;;;;10.43;1.10;;;;;;;7.65;72.95;97088.50;5047935;28;20021;-71
2022/04/08 00:13:25;;;;;;;5.88;0.90;;;;;;;7.68;73.14;97093.63;5064349;28;20062;-71
2022/04/08 00:15:50;;;;;;;4.55;1.00;;;;;;;7.63;73.43;97093.78;5060770;28;20025;-71
2022/04/08 00:18:16;;;;;;;4.97;0.85;;;;;;;7.77;73.59;97096.81;5062102;28;20023;-71
2022/04/08 00:20:42;;;;;;;5.57;1.30;;;;;;;7.86;73.32;97096.53;5058970;28;20020;-71
2022/04/08 00:23:07;;;;;;;4.05;0.93;;;;;;;7.94;72.76;97106.75;5058020;28;20059;-71
2022/04/08 00:25:33;;;;;;;4.38;0.85;;;;;;;7.93;73.29;97100.66;5045724;28;20304;-71
2022/04/08 00:27:58;;;;;;;4.70;1.27;;;;;;;7.94;73.13;97096.28;5044074;28;20025;-71
2022/04/08 00:30:23;;;;;;;3.55;0.68;;;;;;;7.95;73.29;97097.97;5044305;28;20009;-71
2022/04/08 00:32:51;;;;;;;7.60;1.10;;;;;;;7.97;72.98;97104.88;5047594;28;20044;-71
2022/04/08 00:35:16;;;;;;;8.93;1.30;;;;;;;7.78;73.65;97098.53;5045590;28;20025;-71
2022/04/08 00:37:42;;;;;;;6.22;0.77;;;;;;;7.83;73.37;97088.78;5051973;28;20021;-71
2022/04/08 00:40:08;;;;;;;2.20;0.50;;;;;;;7.79;74.04;97095.00;5061850;28;20021;-71
2022/04/08 00:42:34;;;;;;;6.63;1.25;;;;;;;7.67;74.74;97098.03;5060943;28;20017;-71
2022/04/08 00:44:59;;;;;;;8.35;1.60;;;;;;;7.51;75.38;97102.03;5067979;28;20016;-71
2022/04/08 00:47:25;;;;;;;3.30;0.75;;;;;;;7.45;77.18;97101.38;5068637;28;20067;-71
2022/04/08 00:49:52;;;;;;;3.20;0.93;;;;;;;7.28;78.99;97109.72;5044655;28;20026;-71
2022/04/08 00:52:18;;;;;;;11.07;1.35;;;;;;;7.22;79.71;97107.34;5062918;28;20025;-71
2022/04/08 00:54:45;;;;;;;7.18;1.02;;;;;;;7.36;77.94;97113.00;5060604;28;20043;-71
2022/04/08 00:57:11;;;;;;;8.05;1.02;;;;;;;7.40;77.39;97113.75;5061252;28;20025;-71
2022/04/08 00:59:37;;;;;;;10.38;1.48;;;;;;;7.34;77.08;97130.47;5049710;28;20021;-71
2022/04/08 01:02:02;;;;;;;6.15;1.42;;;;;;;7.36;77.02;97123.44;5061854;28;20043;-71
2022/04/08 01:04:28;;;;;;;11.98;1.25;;;;;;;7.40;76.15;97119.81;5066737;28;20276;-71
2022/04/08 01:06:57;;;;;;;6.65;1.30;;;;;;;7.41;76.71;97126.81;5067923;28;20024;-71
2022/04/08 01:09:23;;;;;;;6.20;1.67;;;;;;;7.44;76.07;97131.91;5061848;28;20047;-71
2022/04/08 01:11:49;;;;;;;15.98;1.10;;;;;;;7.35;76.85;97132.22;5063536;28;20251;-71
2022/04/08 01:14:16;;;;;;;10.75;0.88;;;;;;;7.16;77.79;97125.81;5062811;28;20029;-71
2022/04/08 01:16:42;;;;;;;5.28;1.35;;;;;;;7.19;77.86;97133.59;5060816;28;20043;-71
2022/04/08 01:19:07;;;;;;;4.82;1.08;;;;;;;7.32;77.34;97134.94;5049355;28;20021;-71
2022/04/08 01:21:33;;;;;;;8.00;1.33;;;;;;;7.28;78.17;97141.13;5044241;28;20076;-71
2022/04/08 01:24:00;;;;;;;9.32;2.00;;;;;;;7.25;78.40;97136.03;5051250;28;20029;-71
2022/04/08 01:26:26;;;;;;;4.68;0.68;;;;;;;7.31;78.47;97140.19;5057888;28;20016;-71
2022/04/08 01:28:53;;;;;;;5.75;1.10;;;;;;;7.31;78.60;97146.28;5048174;28;20028;-71
2022/04/08 01:31:18;;;;;;;2.17;0.90;;;;;;;7.21;79.24;97155.31;5044211;28;20041;-71
2022/04/08 01:33:44;;;;;;;8.25;0.98;;;;;;;7.17;80.26;97150.22;5044535;28;20044;-71
2022/04/08 01:36:10;;;;;;;8.98;1.27;;;;;;;7.08;80.17;97153.97;5048593;28;20018;-71
2022/04/08 01:38:35;;;;;;;8.57;1.02;;;;;;;7.12;80.56;97150.34;5054863;28;20024;-71
2022/04/08 01:41:01;;;;;;;3.13;0.75;;;;;;;7.08;81.02;97143.50;5060921;28;20193;-71
2022/04/08 01:43:26;;;;;;;3.20;0.70;;;;;;;7.03;81.06;97140.16;5055464;28;20021;-71
2022/04/08 01:45:52;;;;;;;8.13;1.77;;;;;;;7.08;81.16;97143.50;5052859;28;20186;-71
2022/04/08 01:48:18;;;;;;;3.70;0.88;;;;;;;7.03;80.77;97140.16;5053730;28;20024;-71
2022/04/08 01:50:43;;;;;;;2.35;0.95;;;;;;;6.97;81.50;97132.50;5051391;28;20039;-71
2022/04/08 01:53:09;;;;;;;8.32;1.30;;;;;;;7.02;81.52;97133.22;5062864;28;20083;-71
2022/04/08 01:55:34;;;;;;;5.22;1.05;;;;;;;6.98;81.66;97135.94;5062892;28;20039;-71
2022/04/08 01:58:02;;;;;;;2.60;0.80;;;;;;;6.99;81.40;97141.13;5060349;28;20024;-71
2022/04/08 02:00:28;;;;;;;3.30;0.60;;;;;;;6.90;81.93;97144.03;5049882;28;20049;-71
2022/04/08 02:02:53;;;;;;;2.33;0.88;;;;;;;6.95;82.44;97149.97;5046460;28;20032;-71
2022/04/08 02:05:18;;;;;;;8.63;1.45;;;;;;;6.90;82.63;97144.03;5060693;28;20308;-71
2022/04/08 02:07:44;;;;;;;6.30;0.70;;;;;;;6.94;82.02;97148.28;5056567;28;20135;-71
2022/04/08 02:10:10;;;;;;;1.77;0.88;;;;;;;6.86;82.03;97149.41;5055357;28;20253;-71
2022/04/08 02:12:35;;;;;;;9.43;1.38;;;;;;;6.88;82.09;97145.84;5048567;28;20332;-71
2022/04/08 02:15:01;;;;;;;5.28;1.13;;;;;;;6.78;82.03;97148.75;5062705;28;20048;-71
2022/04/08 02:17:28;;;;;;;5.18;0.98;;;;;;;6.74;82.26;97147.97;5069148;28;20302;-71
2022/04/08 02:19:54;;;;;;;6.05;1.05;;;;;;;6.70;82.17;97155.97;5056390;28;20017;-71
2022/04/08 02:22:20;;;;;;;5.80;0.82;;;;;;;6.63;82.46;97150.03;5065649;28;20084;-71
2022/04/08 02:24:47;;;;;;;11.48;1.25;;;;;;;6.71;82.59;97153.31;5065506;28;20017;-71
2022/04/08 02:27:12;;;;;;;4.50;0.90;;;;;;;6.59;82.88;97156.25;5051787;28;20017;-71
2022/04/08 02:29:38;;;;;;;4.13;1.02;;;;;;;6.57;82.99;97160.66;5046723;28;20055;-71
2022/04/08 02:32:04;;;;;;;3.83;0.70;;;;;;;6.50;83.25;97161.72;5054033;28;20220;-71
2022/04/08 02:34:29;;;;;;;6.38;1.75;;;;;;;6.52;83.15;97157.31;5056555;28;20026;-71
2022/04/08 02:36:56;;;;;;;4.10;0.70;;;;;;;6.44;83.55;97159.25;5051367;28;20280;-71
2022/04/08 02:39:21;;;;;;;9.27;0.93;;;;;;;6.38;83.60;97155.06;5047765;28;20084;-71
2022/04/08 02:41:47;;;;;;;9.25;1.52;;;;;;;6.35;83.99;97160.38;5070338;28;20037;-71
2022/04/08 02:44:12;;;;;;;8.70;1.00;;;;;;;6.35;83.98;97164.72;5063935;28;20343;-71
2022/04/08 02:46:38;;;;;;;3.88;1.05;;;;;;;6.30;83.99;97159.63;5063869;28;20020;-71
2022/04/08 02:49:03;;;;;;;4.03;0.88;;;;;;;6.29;84.70;97170.97;5046383;28;20028;-71
2022/04/08 02:51:29;;;;;;;2.05;0.75;;;;;;;6.22;84.31;97168.56;5074512;28;20016;-71
2022/04/08 02:53:55;;;;;;;4.28;0.73;;;;;;;6.13;85.12;97169.66;5062380;28;20041;-71
2022/04/08 02:56:20;;;;;;;4.43;1.05;;;;;;;6.12;84.85;97169.69;5062390;28;20024;-71
2022/04/08 02:58:48;;;;;;;5.85;0.90;;;;;;;6.10;85.30;97168.84;5062958;28;20329;-71
2022/04/08 03:01:17;;;;;;;4.32;1.08;;;;;;;6.07;85.01;97169.81;5063528;28;20031;-71
2022/04/08 03:03:42;;;;;;;5.35;0.90;;;;;;;6.11;85.19;97168.81;5062908;28;20232;-71
2022/04/08 03:06:07;;;;;;;6.15;0.98;;;;;;;6.02;85.15;97171.66;5046509;28;20120;-71
2022/04/08 03:08:34;;;;;;;1.35;0.80;;;;;;;5.96;85.56;97171.84;5062133;28;20047;-71
2022/04/08 03:11:00;;;;;;;7.70;0.73;;;;;;;5.98;85.45;97174.41;5056961;28;20044;-71
2022/04/08 03:13:25;;;;;;;5.75;1.50;;;;;;;5.95;85.41;97174.47;5055754;28;20325;-71
2022/04/08 03:15:51;;;;;;;11.10;1.42;;;;;;;5.93;85.89;97171.03;5057524;28;20025;-71
2022/04/08 03:18:16;;;;;;;3.90;0.93;;;;;;;5.93;85.90;97181.50;5052194;28;20259;-71
2022/04/08 03:20:42;;;;;;;4.65;0.93;;;;;;;5.87;86.12;97176.41;5054414;28;20059;-71
2022/04/08 03:23:07;;;;;;;1.67;0.60;;;;;;;5.81;86.59;97180.03;5054198;28;20021;-71
2022/04/08 03:25:33;;;;;;;5.45;1.13;;;;;;;5.85;86.70;97186.03;5050352;28;20068;-71
2022/04/08 03:27:58;;;;;;;4.78;0.82;;;;;;;5.90;86.59;97184.16;5062381;28;20067;-71
2022/04/08 03:30:27;;;;;;;5.57;0.95;;;;;;;5.87;86.60;97185.13;5062783;28;20217;-71
2022/04/08 03:32:53;;;;;;;7.35;1.05;;;;;;;5.89;86.66;97191.13;5059385;28;20154;-71
2022/04/08 03:35:18;;;;;;;5.38;0.82;;;;;;;5.98;86.73;97182.25;5054233;28;20033;-71
2022/04/08 03:37:44;;;;;;;1.83;0.65;;;;;;;5.95;86.64;97187.53;5053049;28;20228;-71
2022/04/08 03:40:10;;;;;;;8.13;1.30;;;;;;;5.95;87.04;97184.94;5052818;28;20055;-71
2022/04/08 03:42:36;;;;;;;4.57;1.17;;;;;;;5.90;87.00;97187.66;5068234;28;20316;-71
2022/04/08 03:45:01;;;;;;;9.18;1.40;;;;;;;5.92;87.34;97191.06;5069606;28;20063;-71
2022/04/08 03:47:27;;;;;;;5.97;1.00;;;;;;;5.94;87.67;97191.03;5061964;28;20017;-71
2022/04/08 03:49:52;;;;;;;4.25;1.00;;;;;;;5.98;87.60;97200.53;5061059;28;20055;-71
2022/04/08 03:52:17;;;;;;;2.10;0.95;;;;;;;6.00;87.52;97198.72;5062083;28;20016;-71
2022/04/08 03:54:43;;;;;;;13.68;2.05;;;;;;;5.83;87.46;97203.50;5054835;28;20017;-71
2022/04/08 03:57:08;;;;;;;3.10;0.90;;;;;;;5.79;88.53;97199.22;5048106;28;20062;-71
2022/04/08 03:59:33;;;;;;;5.93;0.63;;;;;;;5.85;87.68;97193.84;5053050;28;20016;-71
2022/04/08 04:02:01;;;;;;;10.60;1.05;;;;;;;5.88;87.92;97192.03;5059110;28;20086;-71
2022/04/08 04:04:27;;;;;;;4.60;1.38;;;;;;;5.86;88.04;97185.97;5057911;28;20347;-71
2022/04/08 04:06:53;;;;;;;3.88;0.90;;;;;;;5.80;88.67;97196.56;5045176;28;20017;-71
2022/04/08 04:09:19;;;;;;;4.82;0.98;;;;;;;5.73;89.44;97194.97;5052400;28;20367;-71
2022/04/08 04:11:44;;;;;;;5.10;0.90;;;;;;;5.77;89.54;97190.53;5053568;28;20017;-71
2022/04/08 04:14:09;;;;;;;3.35;1.35;;;;;;;5.76;89.09;97183.63;5056463;28;20182;-71
2022/04/08 04:16:35;;;;;;;10.07;1.30;;;;;;;5.80;89.31;97190.47;5052208;28;20088;-71
2022/04/08 04:19:01;;;;;;;6.03;0.77;;;;;;;5.93;88.95;97186.72;5044624;28;20025;-71
2022/04/08 04:21:26;;;;;;;6.32;1.48;;;;;;;6.04;88.36;97189.91;5045030;28;20063;-71
2022/04/08 04:23:52;;;;;;;4.82;0.63;;;;;;;6.05;88.66;97183.81;5049030;28;20221;-71
2022/04/08 04:26:17;;;;;;;8.00;1.25;;;;;;;6.11;88.79;97187.09;5056104;28;20021;-71
2022/04/08 04:28:43;;;;;;;5.55;1.20;;;;;;;6.13;88.22;97194.91;5057609;28;20025;-71
2022/04/08 04:31:08;;;;;;;9.77;1.42;;;;;;;6.19;88.56;97184.31;5057544;28;20017;-71
2022/04/08 04:33:34;;;;;;;10.90;1.10;;;;;;;6.19;88.34;97190.41;5045538;28;20140;-71
2022/04/08 04:35:59;;;;;;;11.55;1.48;;;;;;;6.23;88.59;97194.66;5050992;28;20053;-71
2022/04/08 04:38:25;;;;;;;5.38;1.13;;;;;;;6.26;87.91;97202.41;5051194;28;20024;-71
2022/04/08 04:40:50;;;;;;;4.18;1.08;;;;;;;6.37;88.01;97200.34;5053418;28;20096;-71
2022/04/08 04:43:16;;;;;;;8.52;1.15;;;;;;;6.35;87.57;97196.09;5058355;28;20028;-71
2022/04/08 04:45:41;;;;;;;8.65;0.90;;;;;;;6.37;87.38;97194.31;5047100;28;20033;-71
2022/04/08 04:48:07;;;;;;;7.70;1.08;;;;;;;6.36;87.92;97203.03;5051842;28;20263;-71
2022/04/08 04:50:33;;;;;;;6.57;1.10;;;;;;;6.35;87.71;97206.53;5047458;28;20032;-71
2022/04/08 04:52:58;;;;;;;2.35;0.50;;;;;;;6.47;87.23;97206.22;5053606;28;20025;-71
2022/04/08 04:55:24;;;;;;;5.03;0.75;;;;;;;6.40;87.67;97210.75;5054967;28;20047;-71
2022/04/08 04:57:49;;;;;;;4.20;1.38;;;;;;;6.47;87.79;97201.00;5048216;28;20029;-71
2022/04/08 05:00:16;;;;;;;3.40;1.38;;;;;;;6.48;87.99;97200.09;5052926;28;20137;-71
2022/04/08 05:02:43;;;;;;;7.90;1.23;;;;;;;6.50;87.75;97208.75;5051049;28;20076;-71
2022/04/08 05:05:09;;;;;;;8.73;0.85;;;;;;;6.49;88.34;97199.22;5059696;28;20029;-71
2022/04/08 05:07:34;;;;;;;7.70;1.50;;;;;;;6.51;88.09;97202.63;5052655;28;20024;-71
2022/04/08 05:10:01;;;;;;;1.55;0.70;;;;;;;6.51;88.36;97202.63;5058763;28;20324;-71
2022/04/08 05:12:27;;;;;;;4.18;0.75;;;;;;;6.55;88.62;97188.56;5055965;28;20028;-71
2022/04/08 05:14:53;;;;;;;3.58;0.63;;;;;;;6.58;88.70;97193.72;5052424;28;20237;-71
2022/04/08 05:17:18;;;;;;;8.23;1.08;;;;;;;6.60;88.76;97195.41;5056458;28;20198;-71
2022/04/08 05:19:44;;;;;;;3.00;0.88;;;;;;;6.61;88.73;97185.78;5061678;28;20032;-71
2022/04/08 05:22:09;;;;;;;9.88;1.65;;;;;;;6.60;88.38;97182.34;5055561;28;20025;-71
2022/04/08 05:24:34;;;;;;;4.00;0.80;;;;;;;6.64;88.18;97177.88;5062398;28;20024;-71
2022/04/08 05:27:00;;;;;;;4.70;0.77;;;;;;;6.66;88.06;97176.09;5055665;28;20032;-71
2022/04/08 05:29:25;;;;;;;8.40;0.88;;;;;;;6.70;88.28;97167.25;5049991;28;20213;-71
2022/04/08 05:31:51;;;;;;;6.15;0.85;;;;;;;6.72;88.07;97165.47;5056001;28;20025;-71
2022/04/08 05:34:16;;;;;;;6.68;0.88;;;;;;;6.78;87.85;97165.31;5050472;28;20079;-71
2022/04/08 05:36:42;;;;;;;5.68;1.05;;;;;;;6.82;88.09;97161.69;5055789;28;20120;-71
2022/04/08 05:39:07;;;;;;;6.80;1.13;;;;;;;6.84;87.79;97166.88;5058374;28;20063;-71
2022/04/08 05:41:33;;;;;;;8.50;1.10;;;;;;;6.86;88.10;97165.94;5058403;28;20020;-70
2022/04/08 05:43:58;;;;;;;10.25;1.77;;;;;;;6.88;87.57;97166.75;5056706;28;20096;-70
2022/04/08 05:46:23;;;;;;;10.05;1.50;;;;;;;6.93;87.94;97157.00;5052046;28;20025;-70
2022/04/08 05:48:49;;;;;;;6.55;1.13;;;;;;;6.97;87.58;97156.03;5055021;28;20052;-70
2022/04/08 05:51:14;;;;;;;1.85;0.70;;;;;;;6.99;87.27;97154.22;5052275;28;20041;-70
2022/04/08 05:53:39;;;;;;;5.20;1.23;;;;;;;6.99;87.39;97164.69;5056128;28;20028;-70
2022/04/08 05:56:05;;;;;;;2.75;0.65;;;;;;;7.03;87.41;97161.09;5070994;28;20024;-70
2022/04/08 05:58:31;;;;;;;4.90;0.80;;;;;;;7.07;86.70;97152.25;5069528;28;20064;-70
2022/04/08 06:00:58;;;;;;;9.10;1.55;;;;;;;7.15;86.90;97155.47;5054961;28;20029;-70
2022/04/08 06:03:23;;;;;;;5.65;1.27;;;;;;;7.18;86.99;97155.41;5056586;28;20029;-70
2022/04/08 06:05:48;;;;;;;4.32;0.93;;;;;;;7.21;86.66;97157.09;5062909;28;20249;-70
2022/04/08 06:08:14;;;;;;;3.30;1.10;;;;;;;7.23;86.84;97156.13;5059746;28;20025;-70
2022/04/08 06:10:39;;;;;;;5.40;1.00;;;;;;;7.24;86.80;97155.22;5055894;28;20028;-70
2022/04/08 06:13:04;;;;;;;8.27;1.33;;;;;;;7.25;86.31;97146.50;5049307;28;20025;-70
2022/04/08 06:15:31;;;;;;;6.45;1.23;;;;;;;7.25;86.53;97156.97;5054971;28;20027;-70
2022/04/08 06:17:57;;;;;;;1.88;0.63;;;;;;;7.29;86.12;97152.47;5051763;28;20093;-70
2022/04/08 06:20:23;;;;;;;5.75;1.02;;;;;;;7.29;85.91;97137.63;5053075;28;20025;-70
2022/04/08 06:22:49;;;;;;;5.72;1.17;;;;;;;7.31;85.57;97141.03;5056775;28;20343;-70
2022/04/08 06:25:20;;;;;;;6.22;1.15;;;;;;;7.28;85.57;97130.66;5054320;28;20080;-70
2022/04/08 06:27:56;;;;;;;1.65;0.52;;;;;;;7.37;86.89;97130.38;5059344;28;20336;-70
2022/04/08 06:30:22;;;;;;;7.47;1.02;;;;;;;7.40;86.21;97119.81;5046224;28;20040;-70
2022/04/08 06:32:48;;;;;;;10.65;1.08;;;;;;;7.46;85.63;97124.88;5055520;28;20052;-70
2022/04/08 06:35:13;;;;;;;12.15;1.08;;;;;;;7.48;85.42;97112.63;5056845;28;20221;-70
2022/04/08 06:37:39;;;;;;;6.95;0.90;;;;;;;7.57;85.60;97117.56;5046001;28;20025;-70
2022/04/08 06:40:06;;;;;;;4.15;1.15;;;;;;;7.48;85.56;97112.63;5045991;28;20033;-70
2022/04/08 06:42:32;;;;;;;5.90;0.73;;;;;;;7.59;85.62;97115.72;5045949;28;20233;-70
2022/04/08 06:44:57;;;;;;;5.95;1.08;;;;;;;7.60;86.70;97117.47;5055102;28;20020;-70
2022/04/08 06:47:24;;;;;;;4.38;1.00;;;;;;;7.64;85.68;97113.84;5049026;28;20033;-70
2022/04/08 06:49:49;;;;;;;0.60;0.50;;;;;;;7.72;84.32;97111.81;5048925;28;20329;-70
2022/04/08 06:52:15;;;;;;;5.18;0.88;;;;;;;7.74;85.14;97110.00;5069981;28;20123;-70
2022/04/08 06:54:40;;;;;;;2.53;0.65;;;;;;;7.74;85.10;97096.91;5079561;28;20079;-70
2022/04/08 06:57:07;;;;;;;3.95;1.00;;;;;;;7.67;85.39;97092.78;5085326;28;20074;-70
2022/04/08 06:59:33;;;;;;;8.15;1.38;;;;;;;7.71;86.34;97089.16;5075956;28;20016;-70
2022/04/08 07:01:58;;;;;;;6.28;1.35;;;;;;;7.70;85.59;97084.84;5062422;28;20040;-70
2022/04/08 07:04:25;;;;;;;3.63;0.90;;;;;;;7.75;85.30;97074.22;5050285;28;20025;-70
2022/04/08 07:06:51;;;;;;;5.18;1.13;;;;;;;7.77;86.30;97073.25;5052466;28;20320;-70
2022/04/08 07:09:16;;;;;;;1.83;1.02;;;;;;;7.88;86.48;97067.66;5060746;28;20029;-70
2022/04/08 07:11:42;;;;;;;2.30;0.80;;;;;;;7.76;85.13;97061.06;5053270;28;20089;-70
2022/04/08 07:14:07;;;;;;;9.10;1.33;;;;;;;7.75;86.71;97063.75;5066740;28;20025;-70
2022/04/08 07:16:32;;;;;;;5.40;1.13;;;;;;;7.77;86.64;97057.53;5085377;28;20029;-70
2022/04/08 07:18:58;;;;;;;2.30;1.15;;;;;;;7.78;87.13;97059.25;5064163;28;20087;-70
2022/04/08 07:21:23;;;;;;;5.25;0.70;;;;;;;7.80;87.14;97056.56;5076420;28;20194;-70
2022/04/08 07:23:49;;;;;;;6.28;1.35;;;;;;;7.66;87.19;97050.94;5073334;28;20048;-70
2022/04/08 07:26:15;;;;;;;4.88;0.70;;;;;;;7.73;88.37;97044.59;5056105;28;20084;-70
2022/04/08 07:28:40;;;;;;;11.85;1.33;;;;;;;7.66;87.64;97038.69;5059482;28;20029;-70
2022/04/08 07:31:06;;;;;;;8.10;1.35;;;;;;;7.56;87.45;97023.38;5074272;28;20020;-70
2022/04/08 07:33:31;;;;;;;9.60;1.08;;;;;;;7.60;88.37;97033.69;5084650;28;20048;-70
2022/04/08 07:35:58;;;;;;;7.25;0.80;;;;;;;7.59;90.06;97026.72;5085200;28;20032;-70
2022/04/08 07:38:24;;;;;;;2.70;0.65;;;;;;;7.61;89.26;97019.69;5084677;28;20054;-70
2022/04/08 07:40:50;;;;;;;4.07;0.70;;;;;;;7.58;88.80;97029.38;5059639;28;20032;-70
2022/04/08 07:43:16;;;;;;;1.98;0.85;;;;;;;7.52;87.96;97030.44;5045204;28;20379;-70
2022/04/08 07:45:42;;;;;;;5.93;0.77;;;;;;;7.39;90.48;97023.91;5044830;28;20037;-70
2022/04/08 07:48:08;;;;;;;3.55;0.95;;;;;;;7.39;90.36;97026.53;5076102;28;20052;-70
2022/04/08 07:50:33;;;;;;;2.55;1.08;;;;;;;7.32;91.77;97026.78;5084633;28;20021;-70
2022/04/08 07:52:59;;;;;;;5.78;1.20;;;;;;;7.25;91.49;97020.91;5084621;28;20033;-70
2022/04/08 07:55:26;;;;;;;4.07;1.23;;;;;;;7.19;91.89;97015.84;5084579;28;20243;-70
2022/04/08 07:57:52;;;;;;;7.47;1.00;;;;;;;7.12;91.36;97006.47;5063561;28;20352;-70
2022/04/08 08:00:25;;;;;;;7.53;0.88;;;;;;;7.23;92.26;97007.00;5050584;28;20036;-70
2022/04/08 08:02:51;;;;;;;2.55;0.70;;;;;;;7.25;93.10;97005.19;5053468;28;20044;-70
2022/04/08 08:05:17;;;;;;;5.40;1.35;;;;;;;7.23;92.79;97001.75;5064378;28;20202;-70
2022/04/08 08:07:57;;;;;;;1.52;0.65;;;;;;;7.19;92.88;96997.53;5050533;28;20251;-70
2022/04/08 08:10:37;;;;;;;4.20;1.02;;;;;;;7.26;93.46;96991.19;5055140;28;20063;-70
2022/04/08 08:13:03;;;;;;;8.18;1.13;;;;;;;7.31;94.00;96994.50;5062757;28;20024;-70
2022/04/08 08:15:30;;;;;;;5.57;1.05;;;;;;;7.30;93.11;96992.81;5044293;28;20360;-70
2022/04/08 08:17:57;;;;;;;3.25;0.93;;;;;;;7.41;92.22;96989.84;5066702;28;20025;-70
2022/04/08 08:20:24;;;;;;;4.70;0.90;;;;;;;7.25;93.83;96983.41;5049014;28;20022;-70
2022/04/08 08:22:50;;;;;;;6.90;1.55;;;;;;;7.27;93.56;96982.44;5047956;28;20084;-70
2022/04/08 08:25:17;;;;;;;4.13;0.88;;;;;;;7.27;94.31;96987.66;5064119;28;20048;-70
2022/04/08 08:27:48;;;;;;;2.88;1.05;;;;;;;7.26;94.44;96975.50;5059937;28;20107;-70
2022/04/08 08:30:16;;;;;;;1.10;0.73;;;;;;;7.26;92.31;96978.13;5061766;28;20309;-70
2022/04/08 08:32:47;;;;;;;3.70;0.80;;;;;;;7.25;93.50;96976.41;5051541;28;20336;-70
2022/04/08 08:35:14;;;;;;;5.80;1.40;;;;;;;7.14;92.69;96986.34;5054883;28;20058;-70
2022/04/08 08:37:40;;;;;;;1.50;0.80;;;;;;;7.15;93.52;96982.81;5063765;28;20033;-70
2022/04/08 08:40:07;;;;;;;3.40;1.10;;;;;;;7.19;93.09;96973.13;5063309;28;20017;-70
2022/04/08 08:42:35;;;;;;;3.63;1.00;;;;;;;7.16;92.58;96979.31;5083451;28;20028;-69
2022/04/08 08:45:01;;;;;;;2.25;0.90;;;;;;;7.14;93.72;96962.81;5082439;28;20020;-69
2022/04/08 08:47:29;;;;;;;2.53;1.00;;;;;;;7.04;93.45;96958.78;5063826;28;20220;-69
2022/04/08 08:49:56;;;;;;;0.95;0.60;;;;;;;7.13;92.28;96963.72;5067207;28;20020;-69
2022/04/08 08:52:21;;;;;;;6.45;1.02;;;;;;;7.01;92.60;96964.09;5060842;28;20032;-69
2022/04/08 08:54:47;;;;;;;0.40;0.40;;;;;;;7.03;92.60;96961.44;5046554;28;20028;-69
2022/04/08 08:57:20;;;;;;;3.47;0.60;;;;;;;7.11;93.42;96960.28;5063722;28;20035;-69
2022/04/08 08:59:46;;;;;;;3.40;1.10;;;;;;;7.10;93.28;96952.50;5063362;28;20049;-69
2022/04/08 09:02:19;;;;;;;0.75;0.60;;;;;;;6.99;93.60;96947.59;5063528;28;20036;-69
2022/04/08 09:04:45;;;;;;;1.20;0.63;;;;;;;7.02;94.34;96944.88;5063670;28;20025;-70
2022/04/08 09:07:25;;;;;;;5.60;0.90;;;;;;;6.93;93.58;96937.34;5063144;28;20048;-70
2022/04/08 09:10:00;;;;;;;1.52;0.85;;;;;;;7.04;93.94;96932.63;5043742;28;20025;-70
2022/04/08 09:12:27;;;;;;;5.75;1.00;;;;;;;6.79;93.05;96928.22;5043655;28;20335;-70
2022/04/08 09:14:58;;;;;;;1.92;0.70;;;;;;;6.81;94.25;96919.44;5077796;28;20021;-70
2022/04/08 09:17:26;;;;;;;2.47;0.93;;;;;;;6.90;94.90;96918.28;5073723;28;20029;-70
2022/04/08 09:19:54;;;;;;;4.78;0.55;;;;;;;6.88;94.03;96914.84;5052889;28;20028;-70
2022/04/08 09:22:20;;;;;;;6.40;0.70;;;;;;;6.92;94.59;96909.47;5063532;28;20027;-70
2022/04/08 09:24:46;;;;;;;2.38;0.60;;;;;;;6.82;94.32;96905.47;5047811;28;20092;-70
2022/04/08 09:27:12;;;;;;;2.15;0.68;;;;;;;6.79;95.16;96897.72;5043500;28;20029;-70
2022/04/08 09:29:43;;;;;;;0.55;0.32;;;;;;;6.82;95.19;96896.75;5054979;28;20123;-70
2022/04/08 09:32:10;;;;;;;4.88;0.63;;;;;;;6.84;94.08;96893.19;5063287;28;20025;-70
2022/04/08 09:34:37;;;;;;;4.18;0.40;;;;;;;6.73;93.64;96890.06;5063416;28;20037;-70
2022/04/08 09:37:12;;;;;;;1.85;0.60;;;;;;;6.72;92.57;96882.25;5063634;28;20082;-70
2022/04/08 09:40:03;;;;;;;0.50;0.25;;;;;;;6.59;92.89;96873.97;5057711;28;20070;-70
2022/04/08 09:42:46;;;;;;;1.48;0.80;;;;;;;6.65;94.52;96863.31;5058680;28;20039;-70
2022/04/08 09:45:14;;;;;;;0.82;0.40;;;;;;;6.83;95.83;96865.31;5071650;28;20028;-70
2022/04/08 09:47:40;;;;;;;2.35;0.70;;;;;;;6.85;96.38;96863.53;5060094;28;20332;-70
2022/04/08 09:50:09;;;;;;;0.30;0.30;;;;;;;6.91;95.43;96859.84;5043329;28;20028;-70
2022/04/08 09:52:37;;;;;;;3.42;0.40;;;;;;;6.83;93.53;96848.81;5043316;28;20021;-70
2022/04/08 09:55:05;;;;;;;2.35;0.50;;;;;;;6.81;93.48;96841.00;5052555;28;20020;-70
2022/04/08 09:57:39;;;;;;;0.60;0.57;;;;;;;6.95;92.49;96830.06;5066484;28;20044;-70
2022/04/08 10:00:08;;;;;;;1.20;0.25;;;;;;;6.78;91.83;96830.66;5047575;28;20068;-70
2022/04/08 10:02:39;;;;;;;0.47;0.28;;;;;;;6.85;91.34;96820.81;5046720;28;20084;-70
2022/04/08 10:05:05;;;;;;;0.60;0.35;;;;;;;6.67;90.36;96806.59;5052965;28;20092;-70
2022/04/08 10:07:30;;;;;;;6.38;1.60;;;;;;;6.68;91.77;96813.56;5066775;28;20024;-70
2022/04/08 10:10:13;;;;;;;1.00;0.55;;;;;;;6.57;93.13;96799.97;5066487;28;20037;-70
2022/04/08 10:12:50;;;;;;;0.40;0.40;;;;;;;6.46;94.07;96802.09;5066572;28;20093;-70
2022/04/08 10:15:40;;;;;;;12.55;4.32;;;;;;;6.29;95.45;96800.00;5048311;28;20340;-69
2022/04/08 10:18:05;;;;;;;3.05;0.88;;;;;;;6.16;96.22;96805.66;5073860;28;20021;-69
2022/04/08 10:20:33;;;;;;;3.90;0.68;;;;;;;6.01;96.99;96803.56;5057571;28;20048;-69
2022/04/08 10:23:10;;;;;;;2.30;0.82;;;;;;;6.02;97.54;96800.03;5063461;28;20032;-69
2022/04/08 10:25:40;;;;;;;0.50;0.35;;;;;;;6.01;96.51;96793.09;5066341;28;20040;-69
2022/04/08 10:28:08;;;;;;;0.28;0.28;;;;;;;5.94;97.14;96791.56;5054562;28;20088;-69
2022/04/08 10:30:44;;;;;;;0.40;0.32;;;;;;;5.96;96.66;96781.94;5065007;28;20078;-69
2022/04/08 10:33:12;;;;;;;0.68;0.47;;;;;;;5.84;96.67;96784.91;5057375;28;20099;-69
2022/04/08 10:35:38;;;;;;;0.90;0.47;;;;;;;5.76;96.08;96772.06;5046432;28;20367;-69
2022/04/08 10:38:04;;;;;;;0.47;0.32;;;;;;;5.75;97.04;96766.88;5051291;28;20017;-69
2022/04/08 10:40:34;;;;;;;3.42;0.70;;;;;;;5.88;97.38;96752.59;5070487;28;20025;-69
2022/04/08 10:43:09;;;;;;;2.60;0.70;;;;;;;5.99;96.92;96753.13;5084499;28;20024;-69
2022/04/08 10:45:36;;;;;;;2.80;0.70;;;;;;;6.05;98.31;96737.25;5079941;28;20021;-69
2022/04/08 10:48:16;;;;;;;1.30;0.60;;;;;;;6.01;96.52;96726.06;5067005;28;20024;-69
2022/04/08 10:50:41;;;;;;;0.98;0.50;;;;;;;5.93;95.66;96711.53;5073422;28;20020;-69
2022/04/08 10:53:13;;;;;;;9.00;2.75;;;;;;;5.80;95.52;96710.19;5086093;28;20028;-69
2022/04/08 10:55:53;;;;;;;1.98;0.68;;;;;;;6.01;95.03;96709.56;5085890;28;20066;-69
2022/04/08 10:58:33;;;;;;;3.58;1.10;;;;;;;5.93;95.73;96708.94;5085189;28;20028;-69
2022/04/08 11:00:59;;;;;;;2.00;0.77;;;;;;;5.89;97.11;96704.72;5078862;28;20110;-69
2022/04/08 11:03:29;;;;;;;0.32;0.30;;;;;;;6.07;94.69;96704.09;5065956;28;20024;-69
2022/04/08 11:05:55;;;;;;;4.57;1.70;;;;;;;5.81;94.30;96698.81;5059800;28;20025;-69
2022/04/08 11:08:26;;;;;;;1.20;0.70;;;;;;;5.81;96.68;96702.34;5050268;28;20036;-69
2022/04/08 11:10:59;;;;;;;1.73;1.05;;;;;;;5.76;97.03;96703.34;5053312;28;20223;-69
2022/04/08 11:13:24;;;;;;;1.90;0.82;;;;;;;5.57;95.26;96695.22;5056804;28;20079;-69
2022/04/08 11:15:50;;;;;;;0.70;0.68;;;;;;;5.62;96.70;96679.44;5058640;28;20029;-69
2022/04/08 11:18:16;;;;;;;2.05;0.40;;;;;;;5.61;95.18;96688.16;5060332;28;20028;-69
2022/04/08 11:20:48;;;;;;;0.70;0.32;;;;;;;5.54;97.17;96671.84;5056977;28;20021;-69
2022/04/08 11:23:13;;;;;;;0.22;0.22;;;;;;;5.57;96.67;96656.09;5051472;28;20099;-69
2022/04/08 11:25:38;;;;;;;0.10;0.10;;;;;;;5.69;95.04;96654.84;5057459;28;20021;-69
2022/04/08 11:28:06;;;;;;;0.10;0.10;;;;;;;5.70;94.64;96648.75;5051788;28;20333;-69
2022/04/08 11:30:34;;;;;;;1.52;0.20;;;;;;;5.63;96.09;96644.63;5048625;28;20021;-69
2022/04/08 11:33:11;;;;;;;0.85;0.22;;;;;;;5.62;96.22;96637.69;5049665;28;20040;-69
2022/04/08 11:35:38;;;;;;;0.30;0.13;;;;;;;5.55;97.42;96625.75;5052399;28;20029;-69
2022/04/08 11:38:14;;;;;;;0.30;0.30;;;;;;;5.58;97.64;96626.50;5054763;28;20033;-69
2022/04/08 11:40:40;;;;;;;0.30;0.30;;;;;;;5.45;97.34;96609.53;5048915;28;20190;-69